• Join FlightAware (Why Join?)
  • Login
  • US Flag 
04:06PM EST


 

Airport Tracker/Info


-or-


 

Live Flight TrackerFlight Track Log ✈ N425RG ✈ 14-Aug-2014 ✈ M33 - KELM

Flight Track Log - Related Links

Times and Time Zones

All times are in EDT time to prevent confusion due to time zone crossing. See the N425RG flight status page for this flight to view local times or setup timezone preferences in your user account.

Time Position Orientation Groundspeed Altitude Reporting Facility
EDT Latitude Longitude Course Direction KTS MPH feet Rate Location/Type
10:49AM 36.4000 -86.4000 39° Northeast 116 133 1,400  Level Nashville TRACON
10:49AM 36.4167 -86.3833 39° Northeast 126 145 1,600 720 Climbing Nashville TRACON
10:51AM 36.4333 -86.3333 67° East 139 160 2,500 720 Climbing Nashville TRACON
10:52AM 36.4667 -86.3000 39° Northeast 139 160 3,200 660 Climbing Nashville TRACON
10:53AM 36.4833 -86.2667 58° Northeast 138 159 3,900 660 Climbing Nashville TRACON
10:54AM 36.5153 -86.2336 40° Northeast 137 158 4,700 660 Climbing Indianapolis Center
10:55AM 36.5406 -86.1961 50° Northeast 137 158 5,400 660 Climbing Indianapolis Center
10:56AM 36.5717 -86.1519 49° Northeast 138 159 6,200 660 Climbing Memphis Center
10:57AM 36.6036 -86.1056 49° Northeast 147 169 6,900 600 Climbing Memphis Center
10:58AM 36.6258 -86.0722 50° Northeast 147 169 7,400 540 Climbing Indianapolis Center
10:59AM 36.6569 -86.0253 50° Northeast 148 170 8,100 600 Climbing Memphis Center
11:00AM 36.6844 -85.9858 49° Northeast 148 170 8,800 600 Climbing Memphis Center
11:01AM 36.7133 -85.9444 49° Northeast 149 171 9,400 540 Climbing Memphis Center
11:02AM 36.7394 -85.8997 54° Northeast 155 178 10,000 600 Climbing Memphis Center
11:03AM 36.7672 -85.8564 51° Northeast 155 178 10,700 720 Climbing Memphis Center
11:04AM 36.7997 -85.8064 51° Northeast 155 178 11,500 660 Climbing Memphis Center
11:05AM 36.8258 -85.7600 55° Northeast 157 181 12,100 480 Climbing Memphis Center
11:06AM 36.8517 -85.7147 55° Northeast 157 181 12,600 480 Climbing Memphis Center
11:07AM 36.8783 -85.6683 54° Northeast 158 182 13,200 480 Climbing Memphis Center
11:08AM 36.9031 -85.6325 49° Northeast 159 183 13,600 480 Climbing Indianapolis Center
11:09AM 36.9331 -85.5869 51° Northeast 164 189 14,200 480 Climbing Indianapolis Center
11:10AM 36.9622 -85.5419 51° Northeast 165 190 14,700 300 Climbing Indianapolis Center
11:11AM 36.9897 -85.4919 55° Northeast 165 190 14,900  Climbing Indianapolis Center
11:12AM 37.0264 -85.4303 53° Northeast 181 208 14,800 -60 Descending Indianapolis Center
11:13AM 37.0606 -85.3781 51° Northeast 189 217 14,800  Level Indianapolis Center
11:14AM 37.0964 -85.3283 48° Northeast 190 219 14,800  Level Indianapolis Center
11:15AM 37.1308 -85.2778 49° Northeast 190 219 14,800  Level Indianapolis Center
11:16AM 37.1656 -85.2286 48° Northeast 189 217 14,800  Level Indianapolis Center
11:18AM 37.2000 -85.1781 49° Northeast 190 219 14,900  Climbing Indianapolis Center
11:19AM 37.2375 -85.1153 53° Northeast 189 217 14,900  Level Indianapolis Center
11:20AM 37.2703 -85.0631 52° Northeast 190 219 14,900  Level Indianapolis Center
11:21AM 37.3033 -85.0133 50° Northeast 190 219 14,900  Level Indianapolis Center
11:22AM 37.3397 -84.9639 47° Northeast 190 219 14,900  Level Indianapolis Center
11:23AM 37.3742 -84.9153 48° Northeast 189 217 14,900  Level Indianapolis Center
11:24AM 37.4122 -84.8544 52° Northeast 189 217 14,900  Level Indianapolis Center
11:25AM 37.4422 -84.7992 56° Northeast 190 219 14,900  Level Indianapolis Center
11:26AM 37.4703 -84.7425 58° Northeast 190 219 14,900  Level Indianapolis Center
11:27AM 37.4972 -84.6811 61° Northeast 195 224 15,000  Climbing Indianapolis Center
11:28AM 37.5181 -84.6169 68° East 197 227 14,900 -60 Descending Indianapolis Center
11:29AM 37.5489 -84.5614 55° Northeast 197 227 14,900 -60 Level Indianapolis Center
11:30AM 37.5900 -84.5000 50° Northeast 195 224 14,800  Descending Indianapolis Center
11:31AM 37.6250 -84.4506 48° Northeast 194 223 14,900  Climbing Indianapolis Center
11:32AM 37.6594 -84.4011 49° Northeast 191 220 14,800 -60 Descending Indianapolis Center
11:33AM 37.6956 -84.3511 48° Northeast 191 220 14,800  Level Indianapolis Center
11:34AM 37.7306 -84.3006 49° Northeast 191 220 14,800  Level Indianapolis Center
11:35AM 37.7656 -84.2522 48° Northeast 190 219 14,800  Level Indianapolis Center
11:36AM 37.8075 -84.1931 48° Northeast 190 219 14,900  Climbing Indianapolis Center
11:37AM 37.8414 -84.1444 49° Northeast 189 217 14,900  Level Indianapolis Center
11:38AM 37.8783 -84.0936 47° Northeast 190 219 14,900  Level Indianapolis Center
11:39AM 37.9125 -84.0436 49° Northeast 190 219 14,900  Level Indianapolis Center
11:40AM 37.9489 -83.9931 48° Northeast 191 220 14,900  Level Indianapolis Center
11:41AM 37.9847 -83.9419 48° Northeast 191 220 14,900  Level Indianapolis Center
11:42AM 38.0264 -83.8825 48° Northeast 191 220 14,900  Level Indianapolis Center
11:43AM 38.0622 -83.8308 49° Northeast 192 221 15,000  Climbing Indianapolis Center
11:44AM 38.0989 -83.7800 47° Northeast 192 221 15,000 -60 Level Indianapolis Center
11:45AM 38.1333 -83.7297 49° Northeast 192 221 14,900 -60 Descending Indianapolis Center
11:46AM 38.1678 -83.6781 50° Northeast 192 221 14,900  Level Indianapolis Center
11:47AM 38.2025 -83.6289 48° Northeast 191 220 14,900  Level Indianapolis Center
11:48AM 38.2372 -83.5761 50° Northeast 191 220 14,900  Level Indianapolis Center
11:49AM 38.2764 -83.5156 51° Northeast 190 219 14,900  Level Indianapolis Center
11:51AM 38.3089 -83.4661 50° Northeast 189 217 14,900  Level Indianapolis Center
11:52AM 38.3431 -83.4136 50° Northeast 189 217 14,900  Level Indianapolis Center
11:53AM 38.3769 -83.3617 50° Northeast 189 217 14,900  Level Indianapolis Center
11:54AM 38.4114 -83.3081 51° Northeast 190 219 14,900  Level Indianapolis Center
11:55AM 38.4453 -83.2556 50° Northeast 191 220 14,900  Level Indianapolis Center
11:56AM 38.4867 -83.1961 48° Northeast 191 220 14,900  Level Indianapolis Center
11:57AM 38.5208 -83.1417 51° Northeast 192 221 14,900  Level Indianapolis Center
11:58AM 38.5547 -83.0892 50° Northeast 192 221 14,900  Level Indianapolis Center
11:59AM 38.5897 -83.0356 50° Northeast 192 221 14,900  Level Indianapolis Center
12:00PM 38.6250 -82.9817 50° Northeast 193 222 14,900  Level Indianapolis Center
12:01PM 38.6625 -82.9253 50° Northeast 198 228 14,900  Level Indianapolis Center
12:02PM 38.6978 -82.8703 51° Northeast 199 229 14,900  Level Indianapolis Center
12:03PM 38.7397 -82.8031 51° Northeast 200 230 14,900  Level Indianapolis Center
12:04PM 38.7750 -82.7492 50° Northeast 200 230 14,900  Level Indianapolis Center
12:05PM 38.8094 -82.6931 52° Northeast 200 230 14,900  Level Indianapolis Center
12:06PM 38.8433 -82.6375 52° Northeast 200 230 14,900  Level Indianapolis Center
12:07PM 38.8797 -82.5803 51° Northeast 200 230 14,900  Level Indianapolis Center
12:08PM 38.9144 -82.5231 52° Northeast 201 231 14,900  Level Indianapolis Center
12:09PM 38.9511 -82.4669 50° Northeast 201 231 14,900  Level Indianapolis Center
12:10PM 38.9869 -82.4092 51° Northeast 202 232 14,900  Level Indianapolis Center
12:11PM 39.0281 -82.3411 52° Northeast 202 232 14,900  Level Indianapolis Center
12:12PM 39.0636 -82.2861 50° Northeast 202 232 14,900  Level Indianapolis Center
12:13PM 39.0981 -82.2278 53° Northeast 202 232 14,900  Level Indianapolis Center
12:14PM 39.1342 -82.1700 51° Northeast 202 232 14,900  Level Indianapolis Center
12:15PM 39.1714 -82.1128 50° Northeast 203 234 14,900  Level Indianapolis Center
12:16PM 39.2067 -82.0550 52° Northeast 203 234 14,900  Level Indianapolis Center
12:17PM 39.2428 -81.9975 51° Northeast 203 234 14,900  Level Indianapolis Center
12:18PM 39.2786 -81.9403 51° Northeast 203 234 14,900  Level Indianapolis Center
12:19PM 39.3219 -81.8725 50° Northeast 203 234 14,900  Level Indianapolis Center
12:20PM 39.3569 -81.8169 51° Northeast 203 234 14,900  Level Indianapolis Center
12:21PM 39.3922 -81.7608 51° Northeast 203 234 14,900  Level Indianapolis Center
12:23PM 39.4289 -81.7047 50° Northeast 202 232 14,900  Level Indianapolis Center
12:24PM 39.4653 -81.6481 50° Northeast 203 234 14,900  Level Indianapolis Center
12:25PM 39.5011 -81.5892 52° Northeast 205 236 14,900  Level Indianapolis Center
12:26PM 39.5369 -81.5328 51° Northeast 205 236 14,900  Level Indianapolis Center
12:27PM 39.5794 -81.4644 51° Northeast 204 235 14,900  Level Indianapolis Center
12:28PM 39.6156 -81.4069 51° Northeast 204 235 14,900  Level Indianapolis Center
12:29PM 39.6439 -81.3622 51° Northeast 205 236 14,900  Level Cleveland Center
12:30PM 39.6800 -81.3047 51° Northeast 205 236 14,900  Level Cleveland Center
12:31PM 39.7147 -81.2458 53° Northeast 205 236 14,900  Level Cleveland Center
12:32PM 39.7575 -81.1761 51° Northeast 205 236 14,900  Level Cleveland Center
12:33PM 39.7928 -81.1169 52° Northeast 206 237 14,900  Level Cleveland Center
12:34PM 39.8286 -81.0575 52° Northeast 206 237 14,900  Level Cleveland Center
12:35PM 39.8636 -80.9986 52° Northeast 207 238 14,900  Level Cleveland Center
12:36PM 39.8983 -80.9406 52° Northeast 206 237 14,900  Level Cleveland Center
12:37PM 39.9422 -80.8717 50° Northeast 206 237 14,900  Level Cleveland Center
12:38PM 39.9783 -80.8133 51° Northeast 206 237 14,900  Level Cleveland Center
12:39PM 40.0136 -80.7547 52° Northeast 206 237 14,900  Level Cleveland Center
12:40PM 40.0489 -80.6975 51° Northeast 206 237 14,900  Level Cleveland Center
12:41PM 40.0842 -80.6383 52° Northeast 206 237 14,900  Level Cleveland Center
12:42PM 40.1192 -80.5806 52° Northeast 205 236 14,900  Level Cleveland Center
12:43PM 40.1600 -80.5092 53° Northeast 205 236 14,900  Level Cleveland Center
12:44PM 40.1944 -80.4506 52° Northeast 205 236 14,900  Level Cleveland Center
12:45PM 40.2286 -80.3925 52° Northeast 204 235 14,900  Level Cleveland Center
12:46PM 40.2631 -80.3325 53° Northeast 204 235 15,000  Climbing Cleveland Center
12:47PM 40.2969 -80.2736 53° Northeast 204 235 15,000  Level Cleveland Center
12:48PM 40.3378 -80.2028 53° Northeast 205 236 15,000  Level Cleveland Center
12:49PM 40.3725 -80.1425 53° Northeast 206 237 15,000  Level Cleveland Center
12:50PM 40.4078 -80.0825 52° Northeast 206 237 15,000  Level Cleveland Center
12:51PM 40.4431 -80.0231 52° Northeast 206 237 15,000  Level Cleveland Center
12:52PM 40.4831 -79.9544 53° Northeast 206 237 15,000  Level Cleveland Center
12:53PM 40.5183 -79.8944 52° Northeast 206 237 15,000  Level Cleveland Center
12:54PM 40.5539 -79.8350 52° Northeast 206 237 15,000  Level Cleveland Center
12:55PM 40.5897 -79.7744 52° Northeast 207 238 15,000  Level Cleveland Center
12:56PM 40.6267 -79.7139 51° Northeast 209 241 15,000  Level Cleveland Center
12:58PM 40.6708 -79.6406 52° Northeast 210 242 15,000  Level Cleveland Center
12:59PM 40.7075 -79.5781 52° Northeast 211 243 15,000  Level Cleveland Center
01:00PM 40.7442 -79.5167 52° Northeast 212 244 15,000  Level Cleveland Center
01:01PM 40.7803 -79.4558 52° Northeast 212 244 15,000 -60 Level Cleveland Center
01:02PM 40.8156 -79.3933 53° Northeast 212 244 14,900 -60 Descending Cleveland Center
01:03PM 40.8581 -79.3181 53° Northeast 212 244 14,900  Level Cleveland Center
01:04PM 40.8950 -79.2556 52° Northeast 213 245 14,900  Level Cleveland Center
01:05PM 40.9317 -79.1919 53° Northeast 214 246 14,900  Level Cleveland Center
01:06PM 40.9675 -79.1275 54° Northeast 215 247 14,900  Level Cleveland Center
01:08PM 41.0383 -78.9981 54° Northeast 218 251 14,900  Level Cleveland Center
01:09PM 41.0808 -78.9200 54° Northeast 218 251 14,900  Level Cleveland Center
01:10PM 41.1161 -78.8550 54° Northeast 218 251 14,900  Level Cleveland Center
01:11PM 41.1519 -78.7906 54° Northeast 218 251 14,900  Level Cleveland Center
01:12PM 41.1883 -78.7267 53° Northeast 218 251 14,900  Level Cleveland Center
01:13PM 41.2247 -78.6622 53° Northeast 218 251 14,900  Level Cleveland Center
01:14PM 41.2681 -78.5881 52° Northeast 217 250 14,900  Level Cleveland Center
01:15PM 41.3028 -78.5256 54° Northeast 215 247 14,900  Level Cleveland Center
01:16PM 41.3381 -78.4600 54° Northeast 215 247 14,900  Level Cleveland Center
01:17PM 41.3775 -78.3931 52° Northeast 215 247 15,000  Climbing Cleveland Center
01:18PM 41.4067 -78.3344 56° Northeast 211 243 14,900 -60 Descending Cleveland Center
01:19PM 41.4397 -78.2706 55° Northeast 211 243 14,900  Level Cleveland Center
01:20PM 41.4808 -78.1939 54° Northeast 211 243 15,000  Climbing Cleveland Center
01:21PM 41.5144 -78.1286 55° Northeast 211 243 14,900 -300 Descending Cleveland Center
01:22PM 41.5483 -78.0633 55° Northeast 212 244 14,500 -600 Descending Cleveland Center
01:23PM 41.5864 -77.9911 55° Northeast 232 267 13,700 -840 Descending Cleveland Center
01:24PM 41.6233 -77.9175 56° Northeast 233 268 12,800 -960 Descending Cleveland Center
01:25PM 41.6644 -77.8261 59° Northeast 240 276 11,800 -960 Descending Cleveland Center
01:27PM 41.7008 -77.7556 55° Northeast 237 273 10,900 -960 Descending Cleveland Center
01:28PM 41.7383 -77.6872 54° Northeast 234 269 9,900 -900 Descending Cleveland Center
01:29PM 41.7761 -77.6172 54° Northeast 234 269 9,100 -480 Descending Cleveland Center
01:30PM 41.8114 -77.5542 53° Northeast 220 253 9,000 -300 Descending Cleveland Center
01:31PM 41.8456 -77.4883 55° Northeast 202 232 8,500 -720 Descending Cleveland Center
01:32PM 41.8822 -77.4239 53° Northeast 210 242 7,600 -900 Descending Cleveland Center
01:33PM 41.9150 -77.3569 57° Northeast 214 246 6,700 -960 Descending Cleveland Center
01:34PM 41.9569 -77.2797 54° Northeast 214 246 5,600 -840 Descending Cleveland Center
01:35PM 41.9919 -77.2183 52° Northeast 213 245 5,000 -300 Descending Cleveland Center
01:36PM 42.0242 -77.1603 53° Northeast 201 231 5,000  Level Cleveland Center
01:37PM 42.0561 -77.1064 51° Northeast 193 222 5,000 -300 Level Cleveland Center
01:38PM 42.0842 -77.0475 57° Northeast 190 219 4,400 -720 Descending Cleveland Center
01:39PM 42.1253 -76.9739 53° Northeast 194 223 3,600 -840 Descending Cleveland Center
01:40PM 42.1653 -76.9217 44° Northeast 199 229 2,700 -660 Descending Cleveland Center
01:41PM 42.2031 -76.8767 41° Northeast 197 227 2,300 -300 Descending Cleveland Center
01:42PM 42.2406 -76.8286 43° Northeast 195 224 2,200 -120 Descending Cleveland Center